Time;durP1;ratioP1;P1;durP2;ratioP2;P2;SDS_P1;SDS_P2;PMS_P1;PMS_P2;Temp;Humidity;BMP_temperature;BMP_pressure;BME280_temperature;BME280_humidity;BME280_pressure;Samples;Min_cycle;Max_cycle;Signal;HPM_P1;HPM_P2
2022/05/29 00:02:08;;;;;;;10.43;7.32;;;;;;;15.38;96.53;100197.91;5027191;28;20025;-68
2022/05/29 00:04:34;;;;;;;9.55;7.20;;;;;;;15.36;97.29;100198.06;5027205;28;20081;-67
2022/05/29 00:07:00;;;;;;;7.82;6.55;;;;;;;15.35;97.06;100193.63;5027545;28;20480;-68
2022/05/29 00:09:31;;;;;;;9.90;6.97;;;;;;;15.36;96.67;100197.19;5027657;28;20354;-68
2022/05/29 00:12:01;;;;;;;11.00;7.07;;;;;;;15.36;96.22;100194.47;5027749;28;20037;-67
2022/05/29 00:14:28;;;;;;;9.75;6.13;;;;;;;15.32;95.97;100187.72;5027588;28;20033;-68
2022/05/29 00:16:54;;;;;;;9.93;7.03;;;;;;;15.32;96.50;100193.97;5021990;28;20033;-67
2022/05/29 00:19:19;;;;;;;7.88;6.85;;;;;;;15.29;97.33;100185.38;5005412;28;20083;-67
2022/05/29 00:21:45;;;;;;;8.60;7.22;;;;;;;15.27;97.51;100185.53;5007661;28;20042;-68
2022/05/29 00:24:11;;;;;;;10.00;6.88;;;;;;;15.25;97.47;100181.31;5010653;28;20034;-66
2022/05/29 00:26:36;;;;;;;12.32;6.72;;;;;;;15.27;96.63;100180.13;5027156;28;20103;-68
2022/05/29 00:29:02;;;;;;;11.30;6.75;;;;;;;15.24;96.49;100176.91;5009440;28;20030;-68
2022/05/29 00:31:28;;;;;;;8.95;6.30;;;;;;;15.22;96.75;100185.19;5007670;28;20033;-68
2022/05/29 00:33:53;;;;;;;11.40;7.03;;;;;;;15.19;97.11;100177.41;5007297;28;20394;-67
2022/05/29 00:36:19;;;;;;;8.90;6.40;;;;;;;15.07;97.71;100159.00;5011882;28;20082;-68
2022/05/29 00:38:47;;;;;;;10.65;6.10;;;;;;;15.15;97.82;100167.94;5027122;28;20037;-68
2022/05/29 00:41:21;;;;;;;10.30;6.50;;;;;;;15.17;97.43;100167.78;5026558;28;20128;-68
2022/05/29 00:44:04;;;;;;;;;;;;;;;15.15;97.74;100162.53;5027598;28;20112;-66
2022/05/29 00:46:30;;;;;;;12.35;6.40;;;;;;;15.15;97.55;100159.84;5027236;28;20308;-68
2022/05/29 00:48:56;;;;;;;7.43;6.03;;;;;;;15.14;97.49;100157.31;5014673;28;20038;-68
2022/05/29 00:51:23;;;;;;;10.27;6.30;;;;;;;15.14;97.57;100154.59;5013779;28;20393;-67
2022/05/29 00:53:49;;;;;;;10.13;6.68;;;;;;;15.13;97.56;100153.75;5044444;28;20045;-68
2022/05/29 00:56:15;;;;;;;11.18;6.63;;;;;;;15.08;97.31;100144.47;5006500;28;20045;-68
2022/05/29 00:58:42;;;;;;;6.93;6.03;;;;;;;15.12;97.36;100143.97;5007136;28;20363;-67
2022/05/29 01:01:08;;;;;;;7.05;5.75;;;;;;;15.12;97.30;100149.38;5006770;28;20040;-68
2022/05/29 01:03:33;;;;;;;8.75;6.28;;;;;;;15.08;97.52;100141.75;5020544;28;20041;-68
2022/05/29 01:05:59;;;;;;;7.25;5.63;;;;;;;15.11;97.17;100141.44;5024603;28;20377;-67
2022/05/29 01:08:29;;;;;;;9.85;6.90;;;;;;;15.10;97.27;100137.91;5014129;28;20044;-68
2022/05/29 01:11:09;;;;;;;9.10;5.97;;;;;;;15.13;96.96;100147.53;5007052;28;20030;-67
2022/05/29 01:14:04;;;;;;;8.25;5.82;;;;;;;15.00;97.04;100123.69;5006853;28;20397;-68
2022/05/29 01:16:35;;;;;;;7.72;5.15;;;;;;;15.09;96.15;100136.19;5003695;28;20115;-66
2022/05/29 01:19:38;;;;;;;10.40;5.97;;;;;;;15.10;95.93;100143.31;5006862;28;20034;-68
2022/05/29 01:22:20;;;;;;;6.05;5.38;;;;;;;15.08;96.46;100150.72;5021981;28;20033;-67
2022/05/29 01:25:21;;;;;;;9.40;6.00;;;;;;;15.04;95.54;100143.97;5012123;28;20646;-68
2022/05/29 01:27:49;;;;;;;7.70;5.65;;;;;;;14.99;96.13;100143.63;5005578;28;20061;-68
2022/05/29 01:30:24;;;;;;;12.25;5.45;;;;;;;14.99;96.70;100145.50;5014298;28;20036;-68
2022/05/29 01:32:56;;;;;;;10.05;5.78;;;;;;;14.96;97.47;100141.25;5026347;28;20040;-68
2022/05/29 01:35:30;;;;;;;8.32;5.72;;;;;;;14.95;97.93;100141.41;5025646;28;20045;-68
2022/05/29 01:38:08;;;;;;;12.20;5.93;;;;;;;14.97;97.86;100145.66;5026301;28;20045;-68
2022/05/29 01:40:41;;;;;;;6.45;5.47;;;;;;;14.84;97.42;100126.41;5024040;28;20488;-68
2022/05/29 01:43:20;;;;;;;10.48;6.32;;;;;;;14.85;97.71;100128.09;5018996;28;20029;-68
2022/05/29 01:45:55;;;;;;;9.80;6.22;;;;;;;14.94;97.50;100143.28;5025218;28;20029;-68
2022/05/29 01:48:52;;;;;;;7.72;6.10;;;;;;;14.89;97.58;100139.38;5005796;28;20022;-68
2022/05/29 01:51:24;;;;;;;8.27;6.03;;;;;;;14.93;97.53;100148.84;5006779;28;20037;-68
2022/05/29 01:53:56;;;;;;;8.93;5.75;;;;;;;14.93;97.45;100149.69;5028011;28;20705;-67
2022/05/29 01:56:26;;;;;;;9.98;6.65;;;;;;;14.91;97.49;100143.63;5029269;28;20077;-68
2022/05/29 01:59:00;;;;;;;6.03;5.28;;;;;;;14.91;97.03;100143.63;5024725;28;20053;-68
2022/05/29 02:01:36;;;;;;;8.40;5.90;;;;;;;14.84;96.46;100128.25;5024978;28;20032;-68
2022/05/29 02:04:08;;;;;;;6.88;5.68;;;;;;;14.90;96.03;100136.50;5029748;28;20486;-67
2022/05/29 02:09:30;;;;;;;6.28;4.97;;;;;;;14.88;94.10;100138.56;5029628;28;20063;-67
2022/05/29 02:12:00;;;;;;;8.38;4.88;;;;;;;14.87;92.46;100134.13;5015401;28;20056;-67
2022/05/29 02:14:32;;;;;;;9.18;4.97;;;;;;;14.88;90.72;100143.09;5009373;28;20033;-66
2022/05/29 02:17:04;;;;;;;9.63;5.03;;;;;;;14.85;89.86;100133.47;5009932;28;20026;-68
2022/05/29 02:19:34;;;;;;;9.10;5.28;;;;;;;14.85;89.38;100146.13;5009609;28;20362;-66
2022/05/29 02:22:03;;;;;;;5.85;4.32;;;;;;;14.86;88.37;100145.09;5008544;28;20037;-68
2022/05/29 02:24:33;;;;;;;5.05;3.88;;;;;;;14.79;87.03;100134.13;5009407;28;20546;-68
2022/05/29 02:27:25;;;;;;;4.05;3.58;;;;;;;14.70;83.69;100134.31;5028776;28;20040;-67
2022/05/29 02:29:55;;;;;;;5.03;3.25;;;;;;;14.69;81.01;100119.94;5029346;28;20075;-68
2022/05/29 02:33:05;;;;;;;8.00;3.10;;;;;;;14.76;79.78;100145.25;5015000;28;20030;-68
2022/05/29 02:36:24;;;;;;;6.03;2.88;;;;;;;14.75;79.68;100153.53;5005638;28;20034;-68
2022/05/29 02:39:02;;;;;;;5.25;3.10;;;;;;;14.72;77.48;100154.72;4966046;28;20439;-67
2022/05/29 02:41:43;;;;;;;3.15;2.45;;;;;;;14.57;72.87;100128.53;5004660;28;20046;-67
2022/05/29 02:44:41;;;;;;;4.68;2.15;;;;;;;14.71;72.47;100150.34;5024149;28;20037;-67
2022/05/29 02:47:33;;;;;;;4.20;2.50;;;;;;;14.69;70.40;100156.88;5017057;28;20540;-68
2022/05/29 02:50:14;;;;;;;3.55;2.15;;;;;;;14.69;71.15;100148.78;5009380;28;20112;-68
2022/05/29 02:52:39;;;;;;;4.80;2.13;;;;;;;14.58;68.30;100141.00;5009326;28;20034;-67
2022/05/29 02:55:06;;;;;;;3.65;1.77;;;;;;;14.62;67.54;100143.22;5009379;28;20038;-68
2022/05/29 02:57:33;;;;;;;6.15;2.22;;;;;;;14.61;66.73;100151.47;5017767;28;20030;-68
2022/05/29 03:00:11;;;;;;;3.92;1.70;;;;;;;14.45;66.57;100116.34;5013136;28;20057;-67
2022/05/29 03:02:51;;;;;;;3.65;1.77;;;;;;;14.52;66.77;100131.72;5015960;28;20024;-68
2022/05/29 03:05:34;;;;;;;3.78;1.70;;;;;;;14.56;65.97;100149.28;5016990;28;20061;-68
2022/05/29 03:08:24;;;;;;;4.47;1.52;;;;;;;14.56;65.60;100146.56;5009199;28;20116;-68
2022/05/29 03:11:02;;;;;;;3.65;1.48;;;;;;;14.50;63.58;100139.13;5023255;28;20156;-68
2022/05/29 03:13:56;;;;;;;1.95;1.40;;;;;;;14.46;62.82;100129.69;5028899;28;20156;-68
2022/05/29 03:16:51;;;;;;;4.78;1.40;;;;;;;14.45;62.36;100127.97;5028287;28;20057;-68
2022/05/29 03:19:19;;;;;;;4.85;1.30;;;;;;;14.45;61.59;100125.25;5008491;28;20033;-66
2022/05/29 03:22:15;;;;;;;2.22;1.30;;;;;;;14.41;62.03;100129.31;5024617;28;20103;-67
2022/05/29 03:24:46;;;;;;;3.05;1.15;;;;;;;14.41;61.13;100129.31;5028230;28;20061;-68
2022/05/29 03:27:25;;;;;;;2.60;1.10;;;;;;;14.38;62.18;100123.41;5027676;28;20037;-68
2022/05/29 03:30:02;;;;;;;9.75;1.77;;;;;;;14.27;60.88;100104.81;5015735;28;20029;-68
2022/05/29 03:32:29;;;;;;;3.15;1.20;;;;;;;14.34;60.21;100122.88;5028473;28;20038;-67
2022/05/29 03:34:55;;;;;;;2.13;1.17;;;;;;;14.33;60.41;100126.59;5028364;28;20072;-67
2022/05/29 03:37:21;;;;;;;6.65;1.23;;;;;;;14.35;60.43;100123.72;5027718;28;20049;-67
2022/05/29 03:39:46;;;;;;;1.20;0.90;;;;;;;14.32;59.80;100124.88;5027994;28;20041;-67
2022/05/29 03:42:12;;;;;;;3.80;1.38;;;;;;;14.26;58.37;100105.81;5021860;28;20161;-67
2022/05/29 03:44:38;;;;;;;3.50;1.10;;;;;;;14.31;58.36;100116.97;5008134;28;20037;-67
2022/05/29 03:47:04;;;;;;;7.35;1.00;;;;;;;14.36;58.40;100128.97;5018876;28;20076;-68
2022/05/29 03:49:31;;;;;;;2.15;1.15;;;;;;;14.27;58.17;100113.75;5028050;28;20033;-66
2022/05/29 03:51:57;;;;;;;4.13;0.90;;;;;;;14.40;57.84;100137.56;5027764;28;20477;-67
2022/05/29 03:54:23;;;;;;;1.70;1.00;;;;;;;14.39;58.55;100134.03;5024759;28;20056;-67
2022/05/29 03:56:49;;;;;;;2.10;1.23;;;;;;;14.33;58.30;100126.59;5027830;28;20493;-68
2022/05/29 03:59:15;;;;;;;1.83;1.10;;;;;;;14.31;59.37;100125.06;5027459;28;20043;-68
2022/05/29 04:01:40;;;;;;;4.32;1.13;;;;;;;14.42;59.57;100143.66;5027860;28;20875;-67
2022/05/29 04:04:06;;;;;;;2.78;1.05;;;;;;;14.40;59.96;100142.97;5027441;28;20061;-68
2022/05/29 04:06:34;;;;;;;3.67;1.10;;;;;;;14.41;60.35;100148.19;5027481;28;20029;-66
2022/05/29 04:14:44;;;;;;;37.08;19.00;;;;;;;14.41;61.03;100144.69;4983996;28;20044;-68
2022/05/29 04:17:13;;;;;;;31.80;17.17;;;;;;;14.41;64.03;100148.19;5007022;28;20026;-68
2022/05/29 04:19:39;;;;;;;36.70;18.70;;;;;;;14.40;65.85;100137.56;5008766;28;20044;-67
2022/05/29 04:22:10;;;;;;;42.72;20.35;;;;;;;14.40;64.21;100137.56;5009346;28;20033;-68
2022/05/29 04:24:37;;;;;;;34.30;17.98;;;;;;;14.39;64.75;100136.75;5007456;28;20793;-68
2022/05/29 04:27:02;;;;;;;30.20;14.55;;;;;;;14.41;63.99;100136.56;5008781;28;20145;-65
2022/05/29 04:29:28;;;;;;;23.45;11.50;;;;;;;14.32;63.89;100115.97;5007165;28;20038;-68
2022/05/29 04:34:37;;;;;;;13.82;6.18;;;;;;;14.37;63.70;100119.00;5006869;28;20469;-69
2022/05/29 04:37:05;;;;;;;10.98;4.90;;;;;;;14.42;64.08;100125.63;5042100;28;20041;-67
2022/05/29 04:39:35;;;;;;;6.60;2.67;;;;;;;14.44;64.08;100120.06;5006351;28;20142;-67
2022/05/29 04:42:00;;;;;;;5.97;1.67;;;;;;;14.41;64.13;100106.91;5007709;28;20425;-67
2022/05/29 04:44:28;;;;;;;5.07;1.50;;;;;;;14.43;64.02;100108.41;5003103;28;20034;-68
2022/05/29 04:46:56;;;;;;;4.85;1.15;;;;;;;14.36;62.72;100093.91;5005543;28;20414;-68
2022/05/29 04:49:21;;;;;;;3.10;1.52;;;;;;;14.35;61.28;100094.88;5006166;28;20153;-68
2022/05/29 04:51:47;;;;;;;5.05;1.70;;;;;;;14.30;60.98;100077.50;5006132;28;20034;-67
2022/05/29 04:54:12;;;;;;;3.22;1.33;;;;;;;14.38;60.41;100085.63;5007804;28;20032;-67
2022/05/29 04:56:38;;;;;;;3.60;0.93;;;;;;;14.32;59.81;100073.63;5008014;28;20042;-67
2022/05/29 04:59:03;;;;;;;2.75;1.23;;;;;;;14.45;60.96;100082.09;5006259;28;20053;-68
2022/05/29 05:01:29;;;;;;;3.00;1.42;;;;;;;14.50;61.51;100089.69;5005973;28;20417;-68
2022/05/29 05:03:54;;;;;;;3.72;1.33;;;;;;;14.51;61.29;100086.84;5011392;28;20508;-67
2022/05/29 05:06:20;;;;;;;4.80;1.85;;;;;;;14.48;61.00;100084.47;5027009;28;20469;-67
2022/05/29 05:08:46;;;;;;;4.38;1.70;;;;;;;14.45;60.04;100071.28;5027882;28;20116;-67
2022/05/29 05:11:11;;;;;;;3.35;1.60;;;;;;;14.57;60.25;100085.34;5027972;28;20707;-67
2022/05/29 05:13:36;;;;;;;8.85;2.03;;;;;;;14.59;61.17;100076.06;5041537;28;20484;-67
2022/05/29 05:16:04;;;;;;;3.65;1.67;;;;;;;14.57;62.56;100064.59;5040422;28;20048;-70
2022/05/29 05:18:30;;;;;;;4.43;1.98;;;;;;;14.59;61.45;100056.31;5038169;28;20025;-69
2022/05/29 05:20:56;;;;;;;4.40;1.77;;;;;;;14.71;59.40;100077.44;5046377;28;20104;-67
2022/05/29 05:23:21;;;;;;;6.03;1.80;;;;;;;14.70;59.12;100059.53;5045852;28;20455;-68
2022/05/29 05:25:47;;;;;;;5.22;1.70;;;;;;;14.84;58.22;100066.13;5046199;28;20068;-66
2022/05/29 05:28:13;;;;;;;3.80;1.20;;;;;;;14.72;56.28;100035.94;5029285;28;20033;-67
2022/05/29 05:30:38;;;;;;;2.40;1.17;;;;;;;14.83;56.72;100048.25;5036408;28;20057;-68
2022/05/29 05:33:04;;;;;;;2.45;1.25;;;;;;;14.97;55.70;100061.09;5029992;28;20033;-67
2022/05/29 05:35:29;;;;;;;2.40;1.30;;;;;;;15.01;55.90;100059.72;5045554;28;20055;-67
2022/05/29 05:37:56;;;;;;;2.35;1.13;;;;;;;15.06;55.08;100058.19;5039576;28;20033;-68
2022/05/29 05:40:22;;;;;;;3.25;1.23;;;;;;;14.98;55.23;100043.84;5029523;28;20062;-67
2022/05/29 05:42:47;;;;;;;3.63;1.20;;;;;;;15.10;55.39;100051.47;5040092;28;20047;-69
2022/05/29 05:45:13;;;;;;;1.95;1.25;;;;;;;15.13;54.71;100048.41;5028578;28;20060;-67
2022/05/29 05:47:39;;;;;;;4.72;1.33;;;;;;;15.15;53.68;100042.81;5035447;28;20033;-67
2022/05/29 05:50:06;;;;;;;3.92;1.08;;;;;;;15.29;53.70;100058.38;5029532;28;20033;-69
2022/05/29 05:52:32;;;;;;;6.20;1.08;;;;;;;15.18;53.99;100034.38;5034447;28;20028;-69
2022/05/29 05:54:57;;;;;;;4.30;1.50;;;;;;;15.33;53.86;100055.16;5037273;28;20677;-68
2022/05/29 05:57:23;;;;;;;3.00;1.05;;;;;;;15.44;53.67;100062.06;5041665;28;20056;-72
2022/05/29 05:59:48;;;;;;;4.88;1.50;;;;;;;15.44;53.78;100046.72;5047572;28;20074;-73
2022/05/29 06:02:14;;;;;;;2.30;0.85;;;;;;;15.40;53.80;100033.69;5035948;28;20499;-66
2022/05/29 06:04:41;;;;;;;3.78;1.10;;;;;;;15.54;54.03;100047.34;5047417;28;20374;-68
2022/05/29 06:07:08;;;;;;;2.65;0.95;;;;;;;15.49;54.58;100030.84;5046262;28;20025;-67
2022/05/29 06:09:34;;;;;;;0.80;0.80;;;;;;;15.64;54.21;100049.88;5045388;28;20029;-67
2022/05/29 06:12:01;;;;;;;2.38;1.17;;;;;;;15.66;53.44;100051.38;5035655;28;20029;-66
2022/05/29 06:14:26;;;;;;;4.85;1.13;;;;;;;15.70;53.41;100038.34;5026767;28;20358;-68
2022/05/29 06:16:51;;;;;;;2.25;1.13;;;;;;;15.79;53.45;100043.56;5029612;28;20037;-67
2022/05/29 06:19:18;;;;;;;11.02;1.60;;;;;;;15.86;52.72;100038.28;5036172;28;20045;-66
2022/05/29 06:21:44;;;;;;;3.85;1.15;;;;;;;15.87;52.58;100031.88;5043975;28;20446;-68
2022/05/29 06:24:09;;;;;;;2.08;1.00;;;;;;;15.92;53.00;100036.78;5029823;28;20049;-67
2022/05/29 06:26:35;;;;;;;3.63;1.00;;;;;;;16.06;52.90;100057.66;5029341;28;20078;-68
2022/05/29 06:29:00;;;;;;;4.00;1.20;;;;;;;15.96;50.13;100035.41;5025744;28;20072;-66
2022/05/29 06:31:26;;;;;;;1.92;1.20;;;;;;;16.07;50.62;100046.66;5036748;28;20145;-68
2022/05/29 06:33:52;;;;;;;5.10;0.93;;;;;;;16.10;51.21;100054.44;5030744;28;20035;-67
2022/05/29 06:36:23;;;;;;;3.85;1.08;;;;;;;16.17;51.09;100057.25;5037556;28;20021;-67
2022/05/29 06:38:49;;;;;;;3.15;0.90;;;;;;;15.97;50.41;100018.13;5044824;28;20029;-67
2022/05/29 06:41:17;;;;;;;2.15;0.93;;;;;;;16.25;49.53;100060.75;5036736;28;20674;-67
2022/05/29 06:43:43;;;;;;;1.67;0.90;;;;;;;16.19;48.60;100052.53;5026109;28;20029;-68
2022/05/29 06:46:10;;;;;;;2.92;1.00;;;;;;;16.24;49.14;100066.34;5028531;28;20117;-68
2022/05/29 06:48:37;;;;;;;1.52;0.85;;;;;;;16.14;48.87;100039.53;5029359;28;20444;-67
2022/05/29 06:51:08;;;;;;;2.75;1.13;;;;;;;16.30;48.58;100073.78;5030549;28;20490;-66
2022/05/29 06:53:34;;;;;;;2.42;1.00;;;;;;;16.18;48.08;100046.25;5046268;28;20095;-68
2022/05/29 06:56:00;;;;;;;5.50;0.93;;;;;;;16.29;48.32;100056.72;5029489;28;20056;-67
2022/05/29 06:58:25;;;;;;;2.13;1.00;;;;;;;16.38;48.18;100077.28;5038007;28;20116;-68
2022/05/29 07:09:04;;;;;;;4.35;1.05;;;;;;;16.49;46.92;100068.81;5014715;28;20410;-68
2022/05/29 07:11:35;;;;;;;5.60;1.10;;;;;;;16.46;46.86;100073.72;5020542;28;20038;-67
2022/05/29 07:14:04;;;;;;;3.58;0.98;;;;;;;16.43;46.66;100074.91;5006996;28;20033;-69
2022/05/29 07:16:30;;;;;;;1.85;1.13;;;;;;;16.31;46.55;100059.25;5008884;28;20041;-67
2022/05/29 07:18:56;;;;;;;2.22;1.10;;;;;;;16.45;46.38;100088.28;5008827;28;20030;-68
2022/05/29 07:21:22;;;;;;;2.22;0.75;;;;;;;16.50;47.22;100078.59;5008509;28;20417;-67
2022/05/29 07:23:48;;;;;;;4.53;1.10;;;;;;;16.51;47.39;100080.28;5009293;28;20033;-69
2022/05/29 07:26:16;;;;;;;2.63;1.02;;;;;;;16.60;48.21;100076.50;5008993;28;20048;-68
2022/05/29 07:28:42;;;;;;;3.88;1.00;;;;;;;16.61;48.64;100066.53;5009160;28;20026;-69
2022/05/29 07:31:07;;;;;;;2.90;0.93;;;;;;;16.73;48.87;100074.03;5008384;28;20038;-66
2022/05/29 07:33:33;;;;;;;2.85;1.17;;;;;;;16.78;46.98;100078.94;5006870;28;20037;-68
2022/05/29 07:35:59;;;;;;;1.55;1.13;;;;;;;16.63;46.59;100049.06;5010894;28;20033;-67
2022/05/29 07:38:26;;;;;;;3.38;1.00;;;;;;;16.85;47.45;100071.75;5017756;28;20041;-68
2022/05/29 07:40:52;;;;;;;5.97;1.20;;;;;;;16.81;46.65;100071.28;5008427;28;20026;-67
2022/05/29 07:43:26;;;;;;;2.05;1.00;;;;;;;16.81;46.33;100074.00;5007769;28;20171;-68
2022/05/29 07:45:57;;;;;;;1.83;1.00;;;;;;;16.74;46.12;100062.22;5008280;28;20763;-67
2022/05/29 07:48:25;;;;;;;4.05;1.08;;;;;;;16.75;45.92;100063.03;5016223;28;20029;-67
2022/05/29 07:50:51;;;;;;;1.33;1.05;;;;;;;16.76;46.32;100059.28;5027191;28;20038;-67
2022/05/29 07:53:17;;;;;;;3.45;1.02;;;;;;;16.78;46.77;100073.50;5007709;28;20437;-68
2022/05/29 07:55:46;;;;;;;1.70;1.08;;;;;;;16.75;47.53;100063.03;5008491;28;20021;-68
2022/05/29 07:58:13;;;;;;;4.32;1.38;;;;;;;16.87;47.14;100062.44;5018645;28;20694;-68
2022/05/29 08:00:39;;;;;;;1.70;0.88;;;;;;;16.86;46.98;100066.16;5027805;28;20535;-67
2022/05/29 08:03:05;;;;;;;3.42;0.98;;;;;;;16.84;46.99;100060.09;5012795;28;20060;-68
2022/05/29 08:05:35;;;;;;;3.90;0.90;;;;;;;16.82;46.57;100054.00;5052589;28;20098;-68
2022/05/29 08:08:04;;;;;;;2.55;0.80;;;;;;;16.80;46.13;100053.34;5026813;28;20032;-67
2022/05/29 08:10:30;;;;;;;1.52;0.95;;;;;;;16.87;46.68;100067.00;5015379;28;20475;-68
2022/05/29 08:12:56;;;;;;;2.20;0.90;;;;;;;16.86;46.36;100071.59;5023387;28;20059;-67
2022/05/29 08:15:21;;;;;;;4.55;0.90;;;;;;;16.87;46.80;100072.44;5023241;28;20033;-67
2022/05/29 08:17:47;;;;;;;2.65;1.00;;;;;;;16.90;46.68;100080.19;5027322;28;20075;-67
2022/05/29 08:20:15;;;;;;;2.72;1.00;;;;;;;16.89;46.30;100076.63;5027426;28;20018;-67
2022/05/29 08:22:40;;;;;;;1.80;0.98;;;;;;;16.91;46.63;100073.75;5027270;28;20030;-68
2022/05/29 08:30:53;;;;;;;2.75;1.00;;;;;;;16.97;46.70;100071.19;5004943;28;20119;-67
2022/05/29 08:33:23;;;;;;;6.57;1.33;;;;;;;17.01;47.18;100071.63;5022220;28;20041;-68
2022/05/29 08:35:53;;;;;;;1.67;1.10;;;;;;;16.98;46.57;100080.97;5026770;28;20029;-68
2022/05/29 08:38:19;;;;;;;5.10;1.23;;;;;;;16.98;46.43;100080.13;5026762;28;20104;-67
2022/05/29 08:40:53;;;;;;;1.35;0.80;;;;;;;16.94;46.31;100070.69;5047256;28;20210;-68
2022/05/29 08:43:25;;;;;;;;;;;;;;;16.95;46.81;100080.47;5027210;28;20033;-68
2022/05/29 08:45:51;;;;;;;1.73;0.82;;;;;;;16.98;47.50;100070.13;5026827;28;19952;-68
2022/05/29 08:48:23;;;;;;;3.80;0.93;;;;;;;17.01;47.85;100074.34;5026488;28;20033;-68
2022/05/29 08:51:12;;;;;;;2.20;0.90;;;;;;;16.98;47.60;100058.44;5026731;28;20424;-68
2022/05/29 08:54:19;;;;;;;4.03;0.95;;;;;;;17.01;47.42;100058.94;5026698;28;20473;-68
2022/05/29 08:57:16;;;;;;;2.22;1.15;;;;;;;16.98;47.60;100058.44;5026859;28;20102;-68
2022/05/29 08:59:52;;;;;;;2.72;0.77;;;;;;;17.01;47.48;100058.94;5039897;28;20721;-67
2022/05/29 09:02:27;;;;;;;2.83;0.95;;;;;;;16.98;48.02;100055.75;5058031;28;20037;-68
2022/05/29 09:05:30;;;;;;;3.67;1.40;;;;;;;16.99;48.40;100063.69;5043247;28;20496;-67
2022/05/29 09:08:01;;;;;;;2.28;1.00;;;;;;;17.02;48.96;100049.78;5046430;28;20440;-67
2022/05/29 09:10:39;;;;;;;3.05;1.10;;;;;;;17.07;48.78;100054.66;5034628;28;20036;-68
2022/05/29 09:13:13;;;;;;;1.70;1.10;;;;;;;17.09;49.22;100053.44;5024928;28;20055;-69
2022/05/29 09:15:43;;;;;;;2.50;0.90;;;;;;;17.02;49.34;100044.34;5043379;28;20037;-67
2022/05/29 09:18:24;;;;;;;3.92;1.10;;;;;;;17.12;48.42;100063.09;5045956;28;20083;-67
2022/05/29 09:21:17;;;;;;;8.65;1.02;;;;;;;17.09;48.71;100061.56;5036187;28;20036;-68
2022/05/29 09:23:52;;;;;;;2.00;1.08;;;;;;;17.13;48.94;100056.63;5024116;28;20050;-67
2022/05/29 09:26:21;;;;;;;2.00;1.00;;;;;;;17.18;49.51;100065.91;5026310;28;20668;-68
2022/05/29 09:28:47;;;;;;;4.32;1.40;;;;;;;17.12;49.51;100052.25;5028024;28;20111;-68
2022/05/29 09:31:22;;;;;;;2.40;1.10;;;;;;;17.14;50.78;100058.31;5046229;28;20116;-70
2022/05/29 09:33:48;;;;;;;3.28;1.08;;;;;;;17.13;50.78;100056.63;5056593;28;20037;-70
2022/05/29 09:36:39;;;;;;;4.20;1.10;;;;;;;17.16;50.71;100057.09;5045908;28;20033;-69
2022/05/29 09:39:20;;;;;;;2.53;1.10;;;;;;;17.11;50.54;100054.13;5038912;28;20171;-68
2022/05/29 09:41:55;;;;;;;3.33;1.42;;;;;;;17.15;51.72;100060.84;5043943;28;20029;-69
2022/05/29 09:44:22;;;;;;;2.70;1.10;;;;;;;17.14;52.27;100061.03;5042691;28;20036;-69
2022/05/29 09:46:50;;;;;;;2.65;1.70;;;;;;;17.14;54.81;100066.44;5040900;28;20029;-69
2022/05/29 09:52:24;;;;;;;5.55;1.83;;;;;;;16.89;62.93;100070.38;5031359;28;20124;-69
2022/05/29 09:54:51;;;;;;;10.15;1.88;;;;;;;16.92;67.40;100075.44;5033229;28;20121;-73
2022/05/29 09:57:25;;;;;;;2.85;1.55;;;;;;;16.83;71.35;100069.22;5034464;28;20068;-71
2022/05/29 10:00:00;;;;;;;4.07;2.15;;;;;;;16.73;72.77;100059.69;5033991;28;20106;-71
2022/05/29 10:02:29;;;;;;;2.20;1.73;;;;;;;16.71;75.30;100078.81;5030454;28;20112;-70
2022/05/29 10:05:00;;;;;;;4.85;1.85;;;;;;;16.67;75.19;100082.06;5017957;28;20057;-71
2022/05/29 10:07:45;;;;;;;4.55;1.80;;;;;;;16.57;76.84;100070.63;5017956;28;20520;-71
2022/05/29 10:10:27;;;;;;;5.22;2.35;;;;;;;16.57;76.76;100076.84;5037931;28;20026;-71
2022/05/29 10:12:55;;;;;;;3.00;1.40;;;;;;;16.52;76.96;100078.41;5013996;28;20511;-72
2022/05/29 10:15:26;;;;;;;5.72;1.73;;;;;;;16.44;70.24;100079.31;5015204;28;20034;-70
2022/05/29 10:17:58;;;;;;;5.55;2.00;;;;;;;16.22;69.80;100038.66;5021656;28;20375;-71
2022/05/29 10:20:42;;;;;;;1.83;1.20;;;;;;;16.24;68.23;100060.94;5033634;28;20033;-71
2022/05/29 10:23:27;;;;;;;3.10;1.67;;;;;;;16.29;69.73;100069.38;5024550;28;20045;-72
2022/05/29 10:25:56;;;;;;;5.10;1.90;;;;;;;16.23;69.89;100070.09;5015499;28;20386;-71
2022/05/29 10:28:29;;;;;;;1.70;1.40;;;;;;;16.16;73.89;100061.84;5009718;28;20370;-70
2022/05/29 10:30:56;;;;;;;3.20;1.33;;;;;;;16.07;67.17;100062.03;5017649;28;20038;-72
2022/05/29 10:33:28;;;;;;;2.92;1.30;;;;;;;15.98;64.92;100049.56;5011814;28;20029;-70
2022/05/29 10:36:09;;;;;;;2.78;1.40;;;;;;;15.91;66.82;100038.63;5016150;28;20088;-70
2022/05/29 10:38:35;;;;;;;4.20;1.30;;;;;;;15.92;66.40;100045.72;5021797;28;20188;-69
2022/05/29 10:41:03;;;;;;;2.65;1.15;;;;;;;15.89;66.63;100041.50;5008899;28;20119;-71
2022/05/29 10:43:36;;;;;;;5.55;1.52;;;;;;;15.81;66.65;100027.16;5018085;28;20397;-71
2022/05/29 10:46:16;;;;;;;3.53;1.48;;;;;;;15.87;75.52;100040.00;5016463;28;20036;-70
2022/05/29 10:48:54;;;;;;;4.22;1.67;;;;;;;15.83;72.56;100028.66;5010180;28;20077;-70
2022/05/29 10:51:39;;;;;;;3.53;1.50;;;;;;;15.77;71.79;100029.38;5018880;28;20037;-71
2022/05/29 10:54:12;;;;;;;3.05;1.27;;;;;;;15.75;67.69;100031.41;5011345;28;20433;-71
2022/05/29 10:57:08;;;;;;;1.90;1.10;;;;;;;15.79;68.77;100027.34;5013336;28;20034;-70
2022/05/29 11:00:10;;;;;;;2.50;1.10;;;;;;;15.81;70.62;100030.69;5033327;28;20095;-69
2022/05/29 11:03:19;;;;;;;1.08;0.88;;;;;;;15.78;65.50;100017.56;5020135;28;20025;-72
2022/05/29 11:06:13;;;;;;;4.00;1.35;;;;;;;15.83;70.16;100011.59;5026749;28;20041;-71
2022/05/29 11:08:39;;;;;;;2.10;1.20;;;;;;;15.85;71.55;100014.97;5022334;28;20017;-71
2022/05/29 11:11:13;;;;;;;1.98;1.17;;;;;;;15.89;73.08;100008.19;5011523;28;20092;-69
2022/05/29 11:13:44;;;;;;;;;;;;;;;15.86;69.97;100003.97;5015169;28;20034;-71
2022/05/29 11:16:28;;;;;;;1.77;0.90;;;;;;;15.97;74.05;100010.03;5012873;28;19921;-72
2022/05/29 11:19:32;;;;;;;1.58;0.80;;;;;;;15.99;71.35;99991.75;5019153;28;20088;-72
2022/05/29 11:22:15;;;;;;;4.55;1.20;;;;;;;15.99;69.54;99989.88;4946753;29;20061;-72
2022/05/29 11:24:57;;;;;;;1.98;1.05;;;;;;;16.03;69.72;99985.81;4946577;28;20110;-71
2022/05/29 11:28:04;;;;;;;1.17;0.98;;;;;;;16.06;67.66;99977.34;4985807;28;20049;-71
2022/05/29 11:31:06;;;;;;;2.30;1.08;;;;;;;16.15;69.60;99975.44;5017460;28;20087;-71
2022/05/29 11:33:41;;;;;;;1.35;0.85;;;;;;;16.19;68.23;99974.91;5006696;28;20052;-70
2022/05/29 11:36:44;;;;;;;2.42;0.80;;;;;;;16.22;66.86;99968.28;5006826;28;20259;-70
2022/05/29 11:39:35;;;;;;;1.23;0.60;;;;;;;16.23;63.16;99970.81;5040115;28;20187;-71
2022/05/29 11:42:22;;;;;;;2.95;1.08;;;;;;;16.28;63.02;99967.56;5011885;28;20034;-69
2022/05/29 11:44:57;;;;;;;1.33;0.82;;;;;;;16.27;61.78;99949.63;4999818;28;20036;-67
2022/05/29 11:53:25;;;;;;;1.20;0.80;;;;;;;16.26;63.27;99942.53;5008192;28;20045;-67
2022/05/29 11:55:54;;;;;;;4.22;1.00;;;;;;;16.26;62.09;99934.41;5041331;28;20389;-66
2022/05/29 11:58:40;;;;;;;2.10;1.00;;;;;;;16.27;61.71;99942.38;5027302;28;20060;-67
2022/05/29 12:01:30;;;;;;;1.98;1.02;;;;;;;16.18;63.45;99924.50;5027561;28;20037;-67
2022/05/29 12:04:19;;;;;;;2.17;0.68;;;;;;;16.17;61.89;99933.66;5020273;28;20046;-65
2022/05/29 12:07:12;;;;;;;2.22;1.08;;;;;;;16.14;61.03;99938.56;5023840;28;20026;-66
2022/05/29 12:09:50;;;;;;;2.47;0.90;;;;;;;16.11;61.66;99936.22;5007518;28;20117;-66
2022/05/29 12:12:25;;;;;;;1.17;0.80;;;;;;;16.07;62.43;99943.00;5013282;28;20112;-65
2022/05/29 12:15:09;;;;;;;2.15;0.70;;;;;;;16.01;61.21;99932.91;5021872;28;20489;-66
2022/05/29 12:17:40;;;;;;;1.30;0.88;;;;;;;16.04;62.80;99936.09;5012281;28;20045;-67
2022/05/29 12:20:07;;;;;;;1.08;0.80;;;;;;;15.98;63.99;99938.66;5036822;28;20657;-67
2022/05/29 12:22:56;;;;;;;2.20;1.13;;;;;;;15.91;65.54;99930.44;5016668;28;20040;-67
2022/05/29 12:25:47;;;;;;;3.33;0.90;;;;;;;15.85;66.47;99926.59;5007213;28;20046;-67
2022/05/29 12:28:28;;;;;;;2.72;1.38;;;;;;;15.71;66.89;99904.84;5007884;28;20030;-67